createdAt,value
2018-06-24T10:51:38.507Z,1020.27
2018-06-24T10:52:38.338Z,1020.20
2018-06-24T10:53:38.398Z,1020.18
2018-06-24T10:54:38.466Z,1020.14
2018-06-24T10:55:38.530Z,1020.12
2018-06-24T10:56:38.602Z,1020.19
2018-06-24T10:57:38.671Z,1020.26
2018-06-24T10:58:38.730Z,1020.18
2018-06-24T10:59:38.798Z,1020.19
2018-06-24T11:00:38.867Z,1020.22
2018-06-24T11:01:38.942Z,1020.23
2018-06-24T11:02:39.011Z,1020.27
2018-06-24T11:03:39.070Z,1020.19
2018-06-24T11:04:39.139Z,1020.24
2018-06-24T11:05:39.263Z,1020.26
2018-06-24T11:06:39.279Z,1020.27
2018-06-24T11:07:39.438Z,1020.20
2018-06-24T11:08:39.419Z,1020.18
2018-06-24T11:09:39.491Z,1020.18
2018-06-24T11:10:39.603Z,1020.20
2018-06-24T11:11:39.627Z,1020.26
2018-06-24T11:12:39.699Z,1020.20
2018-06-24T11:13:39.775Z,1020.22
2018-06-24T11:14:39.835Z,1020.19
2018-06-24T11:15:39.903Z,1020.19
2018-06-24T11:16:39.973Z,1020.20
2018-06-24T11:17:40.055Z,1020.27
2018-06-24T11:18:40.155Z,1020.31
2018-06-24T11:19:40.187Z,1020.26
2018-06-24T11:20:40.347Z,1020.28
2018-06-24T11:21:40.324Z,1020.26
2018-06-24T11:22:40.423Z,1020.25
2018-06-24T11:23:40.467Z,1020.26
2018-06-24T11:24:40.536Z,1020.26
2018-06-24T11:25:40.604Z,1020.21
2018-06-24T11:26:40.764Z,1020.23
2018-06-24T11:27:40.776Z,1020.21
2018-06-24T11:28:40.824Z,1020.22
2018-06-24T11:29:40.888Z,1020.22
2018-06-24T11:30:41.063Z,1020.26
2018-06-24T11:31:41.040Z,1020.19
2018-06-24T11:32:41.221Z,1020.22
2018-06-24T11:33:41.168Z,1020.17
2018-06-24T11:34:41.287Z,1020.18
2018-06-24T11:35:41.311Z,1020.16
2018-06-24T11:36:41.380Z,1020.18
2018-06-24T11:37:41.456Z,1020.17
2018-06-24T11:38:41.608Z,1020.09
2018-06-24T11:39:41.648Z,1020.09
2018-06-24T11:40:41.664Z,1020.07
2018-06-24T11:41:41.779Z,1020.08
2018-06-24T11:42:41.823Z,1020.09
2018-06-24T11:43:41.885Z,1020.06
2018-06-24T11:44:41.960Z,1020.09
2018-06-24T11:45:42.021Z,1020.03
2018-06-24T11:46:42.092Z,1020.04
2018-06-24T11:47:42.292Z,1020.04
2018-06-24T11:48:42.232Z,1020.04
2018-06-24T11:49:42.348Z,1020.02
2018-06-24T11:50:42.385Z,1020.00
2018-06-24T11:51:42.467Z,1020.03
2018-06-24T11:52:42.557Z,1020.05
2018-06-24T11:53:42.601Z,1020.09
2018-06-24T11:54:42.657Z,1020.06
2018-06-24T11:55:42.891Z,1020.07
2018-06-24T11:56:42.808Z,1020.04
2018-06-24T11:57:43.585Z,1020.09
2018-06-24T11:58:42.953Z,1020.05
2018-06-24T11:59:43.017Z,1020.06
2018-06-24T12:00:43.105Z,1020.05
2018-06-24T12:01:43.158Z,1020.08
2018-06-24T12:02:43.272Z,1020.06
2018-06-24T12:03:43.301Z,1020.08
2018-06-24T12:04:43.369Z,1020.11
2018-06-24T12:05:43.437Z,1020.11
2018-06-24T12:06:43.570Z,1020.08
2018-06-24T12:07:43.585Z,1020.08
2018-06-24T12:08:43.658Z,1020.10
2018-06-24T12:09:43.758Z,1020.10
2018-06-24T12:10:43.842Z,1020.03
2018-06-24T12:11:43.862Z,1020.07
2018-06-24T12:12:43.942Z,1020.05
2018-06-24T12:13:44.011Z,1020.10
2018-06-24T12:14:44.074Z,1020.08
2018-06-24T12:15:44.145Z,1020.02
2018-06-24T12:16:44.290Z,1020.01
2018-06-24T12:17:44.302Z,1019.97
2018-06-24T12:18:44.360Z,1019.93
2018-06-24T12:19:44.430Z,1019.96
2018-06-24T12:20:44.582Z,1019.96
2018-06-24T12:21:44.620Z,1019.95
2018-06-24T12:22:44.654Z,1019.96
2018-06-24T12:23:44.730Z,1019.94
2018-06-24T12:24:44.806Z,1019.97
2018-06-24T12:25:44.851Z,1019.93
2018-06-24T12:26:44.922Z,1019.92
2018-06-24T12:27:44.999Z,1019.92
2018-06-24T12:28:45.067Z,1019.97
2018-06-24T12:29:45.131Z,1019.95
2018-06-24T12:30:45.209Z,1019.93
2018-06-24T12:31:45.271Z,1019.94
2018-06-24T12:32:45.451Z,1019.95
2018-06-24T12:33:45.415Z,1019.91
2018-06-24T12:34:45.483Z,1019.92
2018-06-24T12:35:45.560Z,1019.91
2018-06-24T12:36:45.623Z,1019.88
2018-06-24T12:37:45.707Z,1019.87
2018-06-24T12:38:45.821Z,1019.89
2018-06-24T12:39:45.835Z,1019.84
2018-06-24T12:40:45.907Z,1019.82
2018-06-24T12:41:46.079Z,1019.81
2018-06-24T12:42:46.051Z,1019.85
2018-06-24T12:43:46.124Z,1019.82
2018-06-24T12:44:46.192Z,1019.80
2018-06-24T12:45:46.255Z,1019.81
2018-06-24T12:46:46.327Z,1019.78
2018-06-24T12:47:46.403Z,1019.82
2018-06-24T12:48:46.471Z,1019.80
2018-06-24T12:49:46.539Z,1019.84
2018-06-24T12:50:46.612Z,1019.85
2018-06-24T12:51:46.683Z,1019.84
2018-06-24T12:52:46.789Z,1019.78
2018-06-24T12:53:46.824Z,1019.77
2018-06-24T12:54:46.888Z,1019.78
2018-06-24T12:55:46.960Z,1019.80
2018-06-24T12:56:47.028Z,1019.83
2018-06-24T12:57:47.152Z,1019.80
2018-06-24T12:58:47.324Z,1019.78
2018-06-24T12:59:47.554Z,1019.80
2018-06-24T13:00:47.637Z,1019.79
2018-06-24T13:01:47.381Z,1019.76
2018-06-24T13:02:47.460Z,1019.77
2018-06-24T13:03:47.537Z,1019.77
2018-06-24T13:04:47.596Z,1019.79
2018-06-24T13:05:47.893Z,1019.75
2018-06-24T13:06:47.762Z,1019.75
2018-06-24T13:07:47.844Z,1019.79
2018-06-24T13:08:47.880Z,1019.79
2018-06-24T13:09:47.949Z,1019.74
2018-06-24T13:10:48.017Z,1019.72
2018-06-24T13:11:48.093Z,1019.74
2018-06-24T13:12:48.180Z,1019.76
2018-06-24T13:13:48.228Z,1019.72
2018-06-24T13:14:48.296Z,1019.73
2018-06-24T13:15:48.371Z,1019.74
2018-06-24T13:16:48.436Z,1019.66
2018-06-24T13:17:48.513Z,1019.65
2018-06-24T13:18:48.584Z,1019.63
2018-06-24T13:19:49.272Z,1019.65
2018-06-24T13:20:49.176Z,1019.63
2018-06-24T13:21:49.081Z,1019.67
2018-06-24T13:22:48.864Z,1019.69
2018-06-24T13:23:49.081Z,1019.64
2018-06-24T13:24:49.019Z,1019.59
2018-06-24T13:25:49.253Z,1019.58
2018-06-24T13:26:49.187Z,1019.57
2018-06-24T13:27:49.276Z,1019.62
2018-06-24T13:28:49.278Z,1019.60
2018-06-24T13:29:49.345Z,1019.62
2018-06-24T13:30:49.417Z,1019.63
2018-06-24T13:31:49.485Z,1019.60
2018-06-24T13:32:49.661Z,1019.59
2018-06-24T13:33:49.629Z,1019.55
2018-06-24T13:34:49.693Z,1019.53
2018-06-24T13:35:49.769Z,1019.52
2018-06-24T13:36:49.833Z,1019.55
2018-06-24T13:37:51.985Z,1019.53
2018-06-24T13:38:50.472Z,1019.53
2018-06-24T13:39:50.045Z,1019.56
2018-06-24T13:40:50.121Z,1019.56
2018-06-24T13:41:50.185Z,1019.51
2018-06-24T13:42:50.549Z,1019.50
2018-06-24T13:43:50.325Z,1019.55
2018-06-24T13:44:50.397Z,1019.50
2018-06-24T13:45:50.458Z,1019.52
2018-06-24T13:46:50.540Z,1019.54
2018-06-24T13:47:50.611Z,1019.55
2018-06-24T13:48:50.678Z,1019.54
2018-06-24T13:49:50.746Z,1019.56
2018-06-24T13:50:50.816Z,1019.54
2018-06-24T13:51:50.878Z,1019.54
2018-06-24T13:52:50.981Z,1019.59
2018-06-24T13:53:51.034Z,1019.61
2018-06-24T13:54:51.145Z,1019.61
2018-06-24T13:55:51.158Z,1019.60
2018-06-24T13:56:51.255Z,1019.65
2018-06-24T13:57:51.442Z,1019.55
2018-06-24T13:58:51.366Z,1019.59
2018-06-24T13:59:51.443Z,1019.56
2018-06-24T14:00:51.519Z,1019.56
2018-06-24T14:01:51.579Z,1019.61
2018-06-24T14:02:51.738Z,1019.66
2018-06-24T14:03:51.731Z,1019.64
2018-06-24T14:04:51.782Z,1019.57
2018-06-24T14:05:52.103Z,1019.62
2018-06-24T14:06:51.930Z,1019.66
2018-06-24T14:07:52.060Z,1019.61
2018-06-24T14:08:52.071Z,1019.60
2018-06-24T14:09:52.127Z,1019.60
2018-06-24T14:10:52.205Z,1019.60
2018-06-24T14:11:52.271Z,1019.59
2018-06-24T14:12:52.334Z,1019.58
2018-06-24T14:13:52.575Z,1019.62
2018-06-24T14:14:52.483Z,1019.58
2018-06-24T14:15:52.651Z,1019.60
2018-06-24T14:16:52.611Z,1019.61
2018-06-24T14:17:52.679Z,1019.56
2018-06-24T14:18:52.760Z,1019.53
2018-06-24T14:19:52.843Z,1019.57
2018-06-24T14:20:52.928Z,1019.54
2018-06-24T14:21:52.975Z,1019.55
2018-06-24T14:22:53.035Z,1019.52
2018-06-24T14:23:53.934Z,1019.54
2018-06-24T14:24:53.907Z,1019.49
2018-06-24T14:25:53.807Z,1019.53
2018-06-24T14:26:53.780Z,1019.51
2018-06-24T14:27:53.944Z,1019.53
2018-06-24T14:28:54.307Z,1019.52
2018-06-24T14:29:54.264Z,1019.57
2018-06-24T14:30:54.192Z,1019.50
2018-06-24T14:31:54.196Z,1019.52
2018-06-24T14:32:54.327Z,1019.51
2018-06-24T14:33:54.543Z,1019.49
2018-06-24T14:34:54.660Z,1019.51
2018-06-24T14:35:54.457Z,1019.49
2018-06-24T14:36:54.416Z,1019.50
2018-06-24T14:37:54.564Z,1019.49
2018-06-24T14:38:54.292Z,1019.54
2018-06-24T14:39:54.616Z,1019.49
2018-06-24T14:40:54.272Z,1019.52
2018-06-24T14:41:54.344Z,1019.48
2018-06-24T14:42:54.936Z,1019.47
2018-06-24T14:43:54.939Z,1019.49
2018-06-24T14:44:54.544Z,1019.47
2018-06-24T14:45:54.617Z,1019.51
2018-06-24T14:46:54.964Z,1019.49
2018-06-24T14:47:55.039Z,1019.49
2018-06-24T14:48:55.108Z,1019.52
2018-06-24T14:49:55.217Z,1019.47
2018-06-24T14:50:55.293Z,1019.48
2018-06-24T14:51:55.296Z,1019.43
2018-06-24T14:52:55.360Z,1019.49
2018-06-24T14:53:55.424Z,1019.46
2018-06-24T14:54:55.629Z,1019.45
2018-06-24T14:55:55.574Z,1019.48
2018-06-24T14:56:55.603Z,1019.46
2018-06-24T14:57:55.716Z,1019.47
2018-06-24T14:58:55.768Z,1019.48
2018-06-24T14:59:55.944Z,1019.50
2018-06-24T15:00:56.001Z,1019.48
2018-06-24T15:01:55.929Z,1019.49
2018-06-24T15:02:55.985Z,1019.46
2018-06-24T15:03:56.085Z,1019.46
2018-06-24T15:04:56.357Z,1019.46
2018-06-24T15:05:56.365Z,1019.49
2018-06-24T15:06:56.320Z,1019.49
2018-06-24T15:07:56.393Z,1019.49
2018-06-24T15:08:56.433Z,1019.50
2018-06-24T15:09:56.605Z,1019.52
2018-06-24T15:10:56.702Z,1019.48
2018-06-24T15:11:56.637Z,1019.50
2018-06-24T15:12:56.721Z,1019.48
2018-06-24T15:13:56.731Z,1019.45
2018-06-24T15:14:56.945Z,1019.45
2018-06-24T15:15:57.257Z,1019.46
2018-06-24T15:16:57.113Z,1019.50
2018-06-24T15:17:57.057Z,1019.48
2018-06-24T15:18:57.143Z,1019.49
2018-06-24T15:19:57.318Z,1019.52
2018-06-24T15:20:57.337Z,1019.50
2018-06-24T15:21:57.361Z,1019.45
2018-06-24T15:22:57.357Z,1019.42
2018-06-24T15:23:57.486Z,1019.43
2018-06-24T15:24:57.638Z,1019.40
2018-06-24T15:25:57.578Z,1019.41
2018-06-24T15:26:57.634Z,1019.37
2018-06-24T15:27:57.706Z,1019.38
2018-06-24T15:28:57.778Z,1019.39
2018-06-24T15:29:57.978Z,1019.38
2018-06-24T15:30:58.058Z,1019.34
2018-06-24T15:31:57.994Z,1019.36
2018-06-24T15:32:58.090Z,1019.31
2018-06-24T15:33:58.122Z,1019.33
2018-06-24T15:34:58.322Z,1019.33
2018-06-24T15:35:58.419Z,1019.32
2018-06-24T15:36:58.330Z,1019.33
2018-06-24T15:37:58.419Z,1019.32
2018-06-24T15:38:58.482Z,1019.31
2018-06-24T15:39:58.663Z,1019.34
2018-06-24T15:40:58.595Z,1019.32
2018-06-24T15:41:58.639Z,1019.31
2018-06-24T15:42:58.546Z,1019.29
2018-06-24T15:43:58.851Z,1019.27
2018-06-24T15:44:58.991Z,1019.26
2018-06-24T15:45:59.063Z,1019.30
2018-06-24T15:46:59.011Z,1019.32
2018-06-24T15:47:59.084Z,1019.25
2018-06-24T15:48:59.207Z,1019.23
2018-06-24T15:49:59.328Z,1019.23
2018-06-24T15:50:59.395Z,1019.23
2018-06-24T15:51:59.355Z,1019.27
2018-06-24T15:52:59.435Z,1019.27
2018-06-24T15:53:59.456Z,1019.29
2018-06-24T15:54:59.647Z,1019.30
2018-06-24T15:55:59.683Z,1019.35
2018-06-24T15:56:59.667Z,1019.32
2018-06-24T15:57:59.487Z,1019.31
2018-06-24T15:58:59.834Z,1019.30
2018-06-24T15:59:59.968Z,1019.27
2018-06-24T16:01:00.038Z,1019.28
2018-06-24T16:02:00.098Z,1019.27
2018-06-24T16:03:00.129Z,1019.26
2018-06-24T16:04:00.148Z,1019.24
2018-06-24T16:05:00.300Z,1019.27
2018-06-24T16:06:00.409Z,1019.28
2018-06-24T16:07:00.372Z,1019.26
2018-06-24T16:08:00.388Z,1019.27
2018-06-24T16:09:00.496Z,1019.27
2018-06-24T16:10:00.672Z,1019.24
2018-06-24T16:11:00.780Z,1019.29
2018-06-24T16:12:00.680Z,1019.23
2018-06-24T16:13:00.748Z,1019.22
2018-06-24T16:14:00.817Z,1019.24
2018-06-24T16:15:00.932Z,1019.25
2018-06-24T16:16:01.020Z,1019.25
2018-06-24T16:17:01.010Z,1019.19
2018-06-24T16:18:01.076Z,1019.20
2018-06-24T16:19:01.172Z,1019.19
2018-06-24T16:20:01.333Z,1019.16
2018-06-24T16:21:01.633Z,1019.15
2018-06-24T16:22:01.345Z,1019.15
2018-06-24T16:23:01.397Z,1019.11
2018-06-24T16:24:01.495Z,1019.11
2018-06-24T16:25:01.682Z,1019.06
2018-06-24T16:26:01.714Z,1019.05
2018-06-24T16:27:01.735Z,1019.05
2018-06-24T16:28:01.790Z,1019.08
2018-06-24T16:29:01.844Z,1019.09
2018-06-24T16:30:02.031Z,1019.12
2018-06-24T16:31:02.109Z,1019.12
2018-06-24T16:32:02.037Z,1019.14
2018-06-24T16:33:02.108Z,1019.14
2018-06-24T16:34:02.173Z,1019.18
2018-06-24T16:35:02.346Z,1019.19
2018-06-24T16:36:02.280Z,1019.20
2018-06-24T16:37:02.357Z,1019.15
2018-06-24T16:38:02.441Z,1019.16
2018-06-24T16:39:02.493Z,1019.17
2018-06-24T16:40:02.661Z,1019.15
2018-06-24T16:41:02.749Z,1019.12
2018-06-24T16:42:02.445Z,1019.08
2018-06-24T16:43:02.514Z,1019.11
2018-06-24T16:44:02.582Z,1019.16
2018-06-24T16:45:02.670Z,1019.19
2018-06-24T16:46:02.717Z,1019.19
2018-06-24T16:47:02.780Z,1019.21
2018-06-24T16:48:02.846Z,1019.17
2018-06-24T16:49:02.910Z,1019.18
2018-06-24T16:50:02.985Z,1019.17
2018-06-24T16:51:03.066Z,1019.19
2018-06-24T16:52:03.401Z,1019.20
2018-06-24T16:53:03.403Z,1019.23
2018-06-24T16:54:03.246Z,1019.29
2018-06-24T16:55:03.666Z,1019.23
2018-06-24T16:56:03.378Z,1019.28
2018-06-24T16:57:03.442Z,1019.28
2018-06-24T16:58:03.518Z,1019.29
2018-06-24T16:59:03.814Z,1019.34
2018-06-24T17:00:04.038Z,1019.25
2018-06-24T17:01:04.046Z,1019.27
2018-06-24T17:02:04.117Z,1019.32
2018-06-24T17:03:04.155Z,1019.33
2018-06-24T17:04:04.166Z,1019.30
2018-06-24T17:05:04.327Z,1019.25
2018-06-24T17:06:04.409Z,1019.23
2018-06-24T17:07:04.352Z,1019.18
2018-06-24T17:08:04.423Z,1019.15
2018-06-24T17:09:04.259Z,1019.18
2018-06-24T17:10:04.679Z,1019.17
2018-06-24T17:11:04.747Z,1019.16
2018-06-24T17:12:04.715Z,1019.21
2018-06-24T17:13:04.793Z,1019.18
2018-06-24T17:14:04.839Z,1019.17
2018-06-24T17:15:05.007Z,1019.17
2018-06-24T17:16:05.047Z,1019.20
2018-06-24T17:17:04.992Z,1019.15
2018-06-24T17:18:05.312Z,1019.12
2018-06-24T17:19:05.462Z,1019.12
2018-06-24T17:20:05.847Z,1019.16
2018-06-24T17:21:05.893Z,1019.15
2018-06-24T17:22:05.671Z,1019.16
2018-06-24T17:23:05.731Z,1019.18
2018-06-24T17:24:05.795Z,1019.17
2018-06-24T17:25:05.907Z,1019.14
2018-06-24T17:26:06.311Z,1019.17
2018-06-24T17:27:06.003Z,1019.20
2018-06-24T17:28:06.146Z,1019.22
2018-06-24T17:29:06.099Z,1019.18
2018-06-24T17:30:06.136Z,1019.20
2018-06-24T17:31:06.299Z,1019.21
2018-06-24T17:32:06.928Z,1019.20
2018-06-24T17:33:06.384Z,1019.23
2018-06-24T17:34:06.436Z,1019.22
2018-06-24T17:35:06.480Z,1019.17
2018-06-24T17:36:06.592Z,1019.14
2018-06-24T17:37:06.700Z,1019.17
2018-06-24T17:38:07.369Z,1019.15
2018-06-24T17:39:06.760Z,1019.17
2018-06-24T17:40:06.844Z,1019.15
2018-06-24T17:41:06.824Z,1019.13
2018-06-24T17:42:06.940Z,1019.12
2018-06-24T17:43:07.078Z,1019.11
2018-06-24T17:44:07.333Z,1019.08
2018-06-24T17:45:07.197Z,1019.08
2018-06-24T17:46:07.017Z,1019.06
2018-06-24T17:47:07.359Z,1019.08
2018-06-24T17:48:07.359Z,1019.04
2018-06-24T17:49:06.912Z,1019.09
2018-06-24T17:50:06.965Z,1019.08
2018-06-24T17:51:07.016Z,1019.07
2018-06-24T17:52:07.085Z,1019.11
2018-06-24T17:53:07.221Z,1019.12
2018-06-24T17:54:07.216Z,1019.06
2018-06-24T17:55:07.590Z,1019.12
2018-06-24T17:56:07.349Z,1019.13
2018-06-24T17:57:07.416Z,1019.08
2018-06-24T17:58:07.505Z,1019.04
2018-06-24T17:59:07.777Z,1019.07
2018-06-24T18:00:07.748Z,1019.14
2018-06-24T18:01:08.061Z,1019.10
2018-06-24T18:02:07.978Z,1019.08
2018-06-24T18:03:08.053Z,1019.07
2018-06-24T18:04:08.157Z,1019.05
2018-06-24T18:05:08.213Z,1019.06
2018-06-24T18:06:08.361Z,1019.05
2018-06-24T18:07:08.325Z,1019.06
2018-06-24T18:08:08.482Z,1019.04
2018-06-24T18:09:08.477Z,1019.08
2018-06-24T18:10:08.664Z,1019.07
2018-06-24T18:11:08.788Z,1019.08
2018-06-24T18:12:08.693Z,1019.07
2018-06-24T18:13:08.751Z,1019.11
2018-06-24T18:14:08.825Z,1019.08
2018-06-24T18:15:09.025Z,1019.11
2018-06-24T18:16:08.929Z,1019.06
2018-06-24T18:17:08.993Z,1019.06
2018-06-24T18:18:09.041Z,1019.08
2018-06-24T18:19:09.127Z,1019.04
2018-06-24T18:20:09.298Z,1019.03
2018-06-24T18:21:09.417Z,1019.02
2018-06-24T18:22:09.329Z,1019.01
2018-06-24T18:23:09.369Z,1018.99
2018-06-24T18:24:09.457Z,1018.99
2018-06-24T18:25:09.605Z,1018.95
2018-06-24T18:26:09.617Z,1018.95
2018-06-24T18:27:09.634Z,1018.94
2018-06-24T18:28:09.806Z,1018.91
2018-06-24T18:29:09.801Z,1018.95
2018-06-24T18:30:09.958Z,1018.94
2018-06-24T18:31:09.998Z,1018.95
2018-06-24T18:32:10.046Z,1018.94
2018-06-24T18:33:10.100Z,1018.92
2018-06-24T18:34:10.078Z,1019.01
2018-06-24T18:35:10.278Z,1019.01
2018-06-24T18:36:10.343Z,1019.00
2018-06-24T18:37:10.302Z,1019.00
2018-06-24T18:38:10.346Z,1018.95
2018-06-24T18:39:10.472Z,1018.97
2018-06-24T18:40:10.695Z,1018.94
2018-06-24T18:41:10.571Z,1018.90
2018-06-24T18:42:10.647Z,1018.90
2018-06-24T18:43:10.691Z,1018.91
2018-06-24T18:44:10.725Z,1018.94
2018-06-24T18:45:10.883Z,1018.92
2018-06-24T18:46:10.975Z,1018.89
2018-06-24T18:47:10.999Z,1018.91
2018-06-24T18:48:11.003Z,1018.91
2018-06-24T18:49:11.063Z,1018.88
2018-06-24T18:50:11.263Z,1018.85
2018-06-24T18:51:11.321Z,1018.89
2018-06-24T18:52:11.250Z,1018.86
2018-06-24T18:53:11.367Z,1018.87
2018-06-24T18:54:11.428Z,1018.86
2018-06-24T18:55:11.507Z,1018.88
2018-06-24T18:56:11.458Z,1018.87
2018-06-24T18:57:11.632Z,1018.84
2018-06-24T18:58:11.671Z,1018.85
2018-06-24T18:59:11.755Z,1018.80
2018-06-24T19:00:11.824Z,1018.81
2018-06-24T19:01:11.975Z,1018.83
2018-06-24T19:02:12.087Z,1018.79
2018-06-24T19:03:11.984Z,1018.79
2018-06-24T19:04:12.064Z,1018.81
2018-06-24T19:05:12.115Z,1018.84
2018-06-24T19:06:12.332Z,1018.81
2018-06-24T19:07:12.392Z,1018.84
2018-06-24T19:08:12.360Z,1018.87
2018-06-24T19:09:12.409Z,1018.85
2018-06-24T19:10:12.476Z,1018.83
2018-06-24T19:11:12.692Z,1018.81
2018-06-24T19:12:12.684Z,1018.81
2018-06-24T19:13:12.708Z,1018.79
2018-06-24T19:14:12.492Z,1018.81
2018-06-24T19:15:12.788Z,1018.83
2018-06-24T19:16:12.980Z,1018.84
2018-06-24T19:17:13.168Z,1018.82
2018-06-24T19:18:13.004Z,1018.82
2018-06-24T19:19:13.000Z,1018.82
2018-06-24T19:20:13.154Z,1018.80
2018-06-24T19:21:13.271Z,1018.81
2018-06-24T19:22:13.360Z,1018.83
2018-06-24T19:23:13.324Z,1018.81
2018-06-24T19:24:13.412Z,1018.83
2018-06-24T19:25:13.468Z,1018.90
2018-06-24T19:26:13.576Z,1018.86
2018-06-24T19:27:13.676Z,1018.87
2018-06-24T19:28:13.632Z,1018.88
2018-06-24T19:29:13.717Z,1018.86
2018-06-24T19:30:13.792Z,1018.90
2018-06-24T19:31:14.036Z,1018.88
2018-06-24T19:32:14.045Z,1018.90
2018-06-24T19:33:13.961Z,1018.87
2018-06-24T19:34:14.021Z,1018.91
2018-06-24T19:35:14.113Z,1018.89
2018-06-24T19:36:14.228Z,1018.87
2018-06-24T19:37:14.317Z,1018.89
2018-06-24T19:38:14.365Z,1018.89
2018-06-24T19:39:14.426Z,1018.90
2018-06-24T19:40:14.437Z,1018.92
2018-06-24T19:41:14.589Z,1018.90
2018-06-24T19:42:14.657Z,1018.86
2018-06-24T19:43:14.369Z,1018.85
2018-06-24T19:44:14.729Z,1018.87
2018-06-24T19:45:14.757Z,1018.93
2018-06-24T19:46:14.981Z,1018.93
2018-06-24T19:47:15.010Z,1018.93
2018-06-24T19:48:14.980Z,1018.95
2018-06-24T19:49:15.038Z,1018.95
2018-06-24T19:50:15.062Z,1018.95
2018-06-24T19:51:15.294Z,1018.97
2018-06-24T19:52:15.341Z,1018.95
2018-06-24T19:53:15.266Z,1018.96
2018-06-24T19:54:15.373Z,1018.99
2018-06-24T19:55:15.446Z,1019.00
2018-06-24T19:56:15.706Z,1019.00
2018-06-24T19:57:15.630Z,1019.02
2018-06-24T19:58:15.586Z,1019.05
2018-06-24T19:59:15.702Z,1019.03
2018-06-24T20:00:15.754Z,1019.02
2018-06-24T20:01:15.890Z,1019.03
2018-06-24T20:02:15.970Z,1019.07
2018-06-24T20:03:15.902Z,1019.07
2018-06-24T20:04:16.022Z,1019.09
2018-06-24T20:05:16.050Z,1019.10
2018-06-24T20:06:16.238Z,1019.09
2018-06-24T20:07:16.254Z,1019.08
2018-06-24T20:08:16.270Z,1019.09
2018-06-24T20:09:16.323Z,1019.13
2018-06-24T20:10:16.430Z,1019.13
2018-06-24T20:11:16.587Z,1019.20
2018-06-24T20:12:16.578Z,1019.24
2018-06-24T20:13:16.565Z,1019.30
2018-06-24T20:14:16.678Z,1019.34
2018-06-24T20:15:16.718Z,1019.31
2018-06-24T20:16:16.943Z,1019.30
2018-06-24T20:17:16.931Z,1019.30
2018-06-24T20:18:16.942Z,1019.32
2018-06-24T20:19:16.991Z,1019.28
2018-06-24T20:20:17.047Z,1019.28
2018-06-24T20:21:17.211Z,1019.32
2018-06-24T20:22:17.278Z,1019.31
2018-06-24T20:23:17.239Z,1019.41
2018-06-24T20:24:17.290Z,1019.38
2018-06-24T20:25:17.364Z,1019.36
2018-06-24T20:26:17.339Z,1019.35
2018-06-24T20:27:17.250Z,1019.39
2018-06-24T20:28:17.311Z,1019.36
2018-06-24T20:29:17.375Z,1019.36
2018-06-24T20:30:17.439Z,1019.37
2018-06-24T20:31:17.540Z,1019.40
2018-06-24T20:32:17.575Z,1019.39
2018-06-24T20:33:17.636Z,1019.40
2018-06-24T20:34:17.699Z,1019.54
2018-06-24T20:35:17.763Z,1019.52
2018-06-24T20:36:17.836Z,1019.53
2018-06-24T20:37:17.900Z,1019.60
2018-06-24T20:38:17.959Z,1019.56
2018-06-24T20:39:18.024Z,1019.57
2018-06-24T20:40:18.091Z,1019.55
2018-06-24T20:41:18.307Z,1019.48
2018-06-24T20:42:18.215Z,1019.51
2018-06-24T20:43:18.284Z,1019.49
2018-06-24T20:44:18.356Z,1019.53
2018-06-24T20:45:18.415Z,1019.53
2018-06-24T20:46:18.488Z,1019.56
2018-06-24T20:47:18.552Z,1019.57
2018-06-24T20:48:18.616Z,1019.55
2018-06-24T20:49:18.676Z,1019.52
2018-06-24T20:50:18.799Z,1019.53
2018-06-24T20:51:18.812Z,1019.55
2018-06-24T20:52:18.876Z,1019.52
2018-06-24T20:53:18.932Z,1019.55
2018-06-24T20:54:19.000Z,1019.56
2018-06-24T20:55:19.063Z,1019.55
2018-06-24T20:56:19.247Z,1019.50
2018-06-24T20:57:19.192Z,1019.49
2018-06-24T20:58:19.262Z,1019.45
2018-06-24T20:59:19.324Z,1019.51
2018-06-24T21:00:19.388Z,1019.54
2018-06-24T21:01:19.461Z,1019.58
2018-06-24T21:02:19.524Z,1019.59
2018-06-24T21:03:19.645Z,1019.63
2018-06-24T21:04:19.649Z,1019.64
2018-06-24T21:05:19.716Z,1019.57
2018-06-24T21:06:19.784Z,1019.55
2018-06-24T21:07:19.888Z,1019.51
2018-06-24T21:08:19.913Z,1019.52
2018-06-24T21:09:19.968Z,1019.48
2018-06-24T21:10:20.049Z,1019.48
2018-06-24T21:11:20.112Z,1019.50
2018-06-24T21:12:20.175Z,1019.49
2018-06-24T21:13:20.253Z,1019.55
2018-06-24T21:14:20.292Z,1019.54
2018-06-24T21:15:20.365Z,1019.59
2018-06-24T21:16:20.445Z,1019.58
2018-06-24T21:17:20.549Z,1019.57
2018-06-24T21:18:20.561Z,1019.56
2018-06-24T21:19:20.621Z,1019.52
2018-06-24T21:20:20.693Z,1019.51
2018-06-24T21:21:20.761Z,1019.52
2018-06-24T21:22:20.833Z,1019.51
2018-06-24T21:23:20.881Z,1019.50
2018-06-24T21:24:20.960Z,1019.52
2018-06-24T21:25:21.013Z,1019.60
2018-06-24T21:26:21.093Z,1019.60
2018-06-24T21:27:21.143Z,1019.60
2018-06-24T21:28:21.221Z,1019.61
2018-06-24T21:29:21.301Z,1019.59
2018-06-24T21:30:21.345Z,1019.62
2018-06-24T21:31:21.409Z,1019.60
2018-06-24T21:32:21.535Z,1019.62
2018-06-24T21:33:21.522Z,1019.65
2018-06-24T21:34:21.601Z,1019.63
2018-06-24T21:35:21.662Z,1019.60
2018-06-24T21:36:21.738Z,1019.59
2018-06-24T21:37:21.828Z,1019.54
2018-06-24T21:38:21.862Z,1019.56
2018-06-24T21:39:21.918Z,1019.55
2018-06-24T21:40:21.978Z,1019.55
2018-06-24T21:41:22.062Z,1019.59
2018-06-24T21:42:22.134Z,1019.57
2018-06-24T21:43:22.216Z,1019.59
2018-06-24T21:44:22.266Z,1019.59
2018-06-24T21:45:22.310Z,1019.57
2018-06-24T21:46:22.382Z,1019.59
2018-06-24T21:47:22.450Z,1019.56
2018-06-24T21:48:22.506Z,1019.55
2018-06-24T21:49:22.566Z,1019.58
2018-06-24T21:50:22.635Z,1019.56
2018-06-24T21:51:22.706Z,1019.50
2018-06-24T21:52:22.762Z,1019.59
2018-06-24T21:53:22.826Z,1019.59
2018-06-24T21:54:22.899Z,1019.59
2018-06-24T21:55:22.963Z,1019.58
2018-06-24T21:56:23.039Z,1019.54
2018-06-24T21:57:23.102Z,1019.53
2018-06-24T21:58:23.155Z,1019.53
2018-06-24T21:59:23.219Z,1019.48
2018-06-24T22:00:23.279Z,1019.46
2018-06-24T22:01:23.379Z,1019.45
2018-06-24T22:02:23.422Z,1019.47
2018-06-24T22:03:23.471Z,1019.50
2018-06-24T22:04:23.551Z,1019.48
2018-06-24T22:05:23.619Z,1019.53
2018-06-24T22:06:23.759Z,1019.53
2018-06-24T22:07:23.747Z,1019.51
2018-06-24T22:08:23.807Z,1019.50
2018-06-24T22:09:23.860Z,1019.53
2018-06-24T22:10:23.923Z,1019.54
2018-06-24T22:11:24.011Z,1019.56
2018-06-24T22:12:24.072Z,1019.58
2018-06-24T22:13:24.124Z,1019.51
2018-06-24T22:14:24.188Z,1019.51
2018-06-24T22:15:24.260Z,1019.47
2018-06-24T22:16:24.340Z,1019.53
2018-06-24T22:17:24.404Z,1019.52
2018-06-24T22:18:24.455Z,1019.55
2018-06-24T22:19:24.511Z,1019.56
2018-06-24T22:20:24.572Z,1019.53
2018-06-24T22:21:24.644Z,1019.52
2018-06-24T22:22:24.716Z,1019.50
2018-06-24T22:23:24.768Z,1019.50
2018-06-24T22:24:24.828Z,1019.53
2018-06-24T22:25:24.906Z,1019.61
2018-06-24T22:26:24.969Z,1019.59
2018-06-24T22:27:25.045Z,1019.58
2018-06-24T22:28:25.095Z,1019.56
2018-06-24T22:29:25.156Z,1019.60
2018-06-24T22:30:25.220Z,1019.59
2018-06-24T22:31:25.292Z,1019.63
2018-06-24T22:32:25.520Z,1019.64
2018-06-24T22:33:25.412Z,1019.61
2018-06-24T22:34:25.473Z,1019.61
2018-06-24T22:35:25.544Z,1019.62
2018-06-24T22:36:25.616Z,1019.63
2018-06-24T22:37:25.685Z,1019.59
2018-06-24T22:38:25.753Z,1019.55
2018-06-24T22:39:25.805Z,1019.55
2018-06-24T22:40:25.869Z,1019.55
2018-06-24T22:41:25.929Z,1019.55
2018-06-24T22:42:26.013Z,1019.56
2018-06-24T22:43:26.069Z,1019.58
2018-06-24T22:44:26.125Z,1019.59
2018-06-24T22:45:26.185Z,1019.52
2018-06-24T22:46:26.249Z,1019.50
2018-06-24T22:47:26.321Z,1019.55
2018-06-24T22:48:26.429Z,1019.54
2018-06-24T22:49:26.461Z,1019.52
2018-06-24T22:50:26.512Z,1019.55
2018-06-24T22:51:26.577Z,1019.51
2018-06-24T22:52:26.641Z,1019.54
2018-06-24T22:53:26.733Z,1019.53
2018-06-24T22:54:26.773Z,1019.52
2018-06-24T22:55:26.833Z,1019.51
2018-06-24T22:56:26.909Z,1019.58
2018-06-24T22:57:26.969Z,1019.56